Time;durP1;ratioP1;P1;durP2;ratioP2;P2;SDS_P1;SDS_P2;PMS_P1;PMS_P2;Temp;Humidity;BMP_temperature;BMP_pressure;BME280_temperature;BME280_humidity;BME280_pressure;Samples;Min_cycle;Max_cycle;Signal;HPM_P1;HPM_P2
2022/07/26 00:01:40;;;;;;;16.65;3.72;;;;;;;;;;5020634;28;20382;-77
2022/07/26 00:04:06;;;;;;;14.05;3.67;;;;;;;;;;5025583;28;20525;-76
2022/07/26 00:06:31;;;;;;;20.13;4.53;;;;;;;;;;5021707;28;20505;-77
2022/07/26 00:08:56;;;;;;;20.57;3.70;;;;;;;;;;5022749;28;20134;-76
2022/07/26 00:11:22;;;;;;;15.17;3.70;;;;;;;;;;5027618;28;20294;-78
2022/07/26 00:13:47;;;;;;;14.10;4.13;;;;;;;;;;5026500;28;20624;-79
2022/07/26 00:16:12;;;;;;;19.15;4.60;;;;;;;;;;5019474;28;20342;-79
2022/07/26 00:18:38;;;;;;;17.52;4.57;;;;;;;;;;5019034;28;20109;-78
2022/07/26 00:21:03;;;;;;;11.00;3.38;;;;;;;;;;5025257;28;20033;-78
2022/07/26 00:23:28;;;;;;;19.65;3.97;;;;;;;;;;5025386;28;20241;-77
2022/07/26 00:25:53;;;;;;;18.95;4.25;;;;;;;;;;5028761;28;20306;-78
2022/07/26 00:28:19;;;;;;;17.58;4.03;;;;;;;;;;5007630;28;20022;-78
2022/07/26 00:30:45;;;;;;;21.55;5.18;;;;;;;;;;5026810;28;20033;-77
2022/07/26 00:33:10;;;;;;;15.70;4.40;;;;;;;;;;5023444;28;20021;-78
2022/07/26 00:35:35;;;;;;;14.38;3.33;;;;;;;;;;4998547;28;20084;-79
2022/07/26 00:38:01;;;;;;;12.70;3.47;;;;;;;;;;5022995;28;20537;-77
2022/07/26 00:40:26;;;;;;;12.95;4.13;;;;;;;;;;5023867;28;20038;-77
2022/07/26 00:42:51;;;;;;;15.00;4.50;;;;;;;;;;5004880;28;20029;-77
2022/07/26 00:45:17;;;;;;;15.32;3.75;;;;;;;;;;5020653;28;20097;-78
2022/07/26 00:47:43;;;;;;;15.10;4.40;;;;;;;;;;5020690;28;20014;-78
2022/07/26 00:50:16;;;;;;;15.45;4.18;;;;;;;;;;5021568;28;20025;-78
2022/07/26 00:52:42;;;;;;;16.65;4.65;;;;;;;;;;5023836;28;20382;-78
2022/07/26 00:55:07;;;;;;;18.75;4.90;;;;;;;;;;5021365;28;20030;-77
2022/07/26 00:57:34;;;;;;;16.52;4.63;;;;;;;;;;5008909;28;20029;-78
2022/07/26 01:00:00;;;;;;;11.57;4.13;;;;;;;;;;5023126;28;20021;-76
2022/07/26 01:02:25;;;;;;;15.70;5.15;;;;;;;;;;5008270;28;20056;-78
2022/07/26 01:04:50;;;;;;;19.48;4.78;;;;;;;;;;5022739;28;20397;-77
2022/07/26 01:07:16;;;;;;;14.60;3.97;;;;;;;;;;5019019;28;20029;-76
2022/07/26 01:09:41;;;;;;;17.50;4.30;;;;;;;;;;5022440;28;20295;-77
2022/07/26 01:12:06;;;;;;;13.45;3.95;;;;;;;;;;5009137;28;20033;-76
2022/07/26 01:14:32;;;;;;;16.13;4.45;;;;;;;;;;5021979;28;20040;-77
2022/07/26 01:16:57;;;;;;;16.92;3.97;;;;;;;;;;5021459;28;20026;-76
2022/07/26 01:19:22;;;;;;;13.53;3.50;;;;;;;;;;5022611;28;20029;-76
2022/07/26 01:21:48;;;;;;;23.23;4.57;;;;;;;;;;5006621;28;20282;-77
2022/07/26 01:24:15;;;;;;;14.90;3.75;;;;;;;;;;5026765;28;20484;-77
2022/07/26 01:26:40;;;;;;;13.32;3.92;;;;;;;;;;5024597;28;20030;-76
2022/07/26 01:29:05;;;;;;;15.50;3.45;;;;;;;;;;5025783;28;20030;-77
2022/07/26 01:31:31;;;;;;;16.65;4.78;;;;;;;;;;5024630;28;20029;-77
2022/07/26 01:33:56;;;;;;;19.20;4.50;;;;;;;;;;5008653;28;20041;-76
2022/07/26 01:36:21;;;;;;;16.65;5.13;;;;;;;;;;5018109;28;20029;-77
2022/07/26 01:38:46;;;;;;;16.85;3.60;;;;;;;;;;5023888;28;20037;-76
2022/07/26 01:41:11;;;;;;;14.95;3.22;;;;;;;;;;5025073;28;20033;-76
2022/07/26 01:43:37;;;;;;;16.08;4.00;;;;;;;;;;5021790;28;20401;-76
2022/07/26 01:46:03;;;;;;;11.95;3.30;;;;;;;;;;5021403;28;20025;-76
2022/07/26 01:48:32;;;;;;;16.23;6.05;;;;;;;;;;5023699;28;20099;-76
2022/07/26 01:50:57;;;;;;;18.95;4.22;;;;;;;;;;5024490;28;20044;-77
2022/07/26 01:53:22;;;;;;;14.90;4.53;;;;;;;;;;5016133;28;20021;-76
2022/07/26 01:55:47;;;;;;;25.03;5.00;;;;;;;;;;5024812;28;20100;-76
2022/07/26 01:58:13;;;;;;;14.43;4.30;;;;;;;;;;5023831;28;20770;-77
2022/07/26 02:00:38;;;;;;;15.93;4.10;;;;;;;;;;5021835;28;20067;-76
2022/07/26 02:03:03;;;;;;;14.43;4.50;;;;;;;;;;5022990;28;20096;-77
2022/07/26 02:05:29;;;;;;;19.43;5.43;;;;;;;;;;5006780;28;20172;-77
2022/07/26 02:07:54;;;;;;;16.58;4.28;;;;;;;;;;5026174;28;20263;-77
2022/07/26 02:10:20;;;;;;;14.18;3.88;;;;;;;;;;5022571;28;20034;-76
2022/07/26 02:12:45;;;;;;;15.25;5.70;;;;;;;;;;5023990;28;21962;-77
2022/07/26 02:15:11;;;;;;;14.43;3.85;;;;;;;;;;5023259;28;20426;-78
2022/07/26 02:17:36;;;;;;;18.20;4.10;;;;;;;;;;5019797;28;20026;-78
2022/07/26 02:20:02;;;;;;;17.38;4.35;;;;;;;;;;5022545;28;20095;-78
2022/07/26 02:22:27;;;;;;;14.63;3.88;;;;;;;;;;5004772;28;20108;-78
2022/07/26 02:24:52;;;;;;;12.02;3.95;;;;;;;;;;5003549;28;20892;-77
2022/07/26 02:27:18;;;;;;;11.13;4.30;;;;;;;;;;5023066;28;20765;-78
2022/07/26 02:29:43;;;;;;;9.45;4.13;;;;;;;;;;5002718;28;20446;-77
2022/07/26 02:32:09;;;;;;;18.38;4.30;;;;;;;;;;5002654;28;20024;-78
2022/07/26 02:34:35;;;;;;;13.52;3.92;;;;;;;;;;5023553;28;20029;-78
2022/07/26 02:37:00;;;;;;;16.58;4.82;;;;;;;;;;5014150;28;20393;-75
2022/07/26 02:39:26;;;;;;;9.93;3.28;;;;;;;;;;5004980;28;20021;-79
2022/07/26 02:41:55;;;;;;;13.98;4.45;;;;;;;;;;5019207;28;20493;-77
2022/07/26 02:44:23;;;;;;;12.15;3.22;;;;;;;;;;5000525;28;20112;-77
2022/07/26 02:46:48;;;;;;;14.10;3.42;;;;;;;;;;5023173;28;20025;-77
2022/07/26 02:49:13;;;;;;;13.20;3.97;;;;;;;;;;5020542;28;20496;-77
2022/07/26 02:51:38;;;;;;;16.23;3.77;;;;;;;;;;5021043;28;20034;-77
2022/07/26 02:54:04;;;;;;;17.20;3.50;;;;;;;;;;5024645;28;20301;-76
2022/07/26 02:56:29;;;;;;;11.88;3.83;;;;;;;;;;5021171;28;20072;-76
2022/07/26 02:58:54;;;;;;;14.93;4.57;;;;;;;;;;5023770;28;20029;-77
2022/07/26 03:01:20;;;;;;;12.20;3.70;;;;;;;;;;5024805;28;20026;-76
2022/07/26 03:03:46;;;;;;;11.75;3.28;;;;;;;;;;5023788;28;20036;-77
2022/07/26 03:06:12;;;;;;;8.88;3.58;;;;;;;;;;5001667;28;20071;-76
2022/07/26 03:08:38;;;;;;;13.43;2.97;;;;;;;;;;5024997;28;20021;-76
2022/07/26 03:11:04;;;;;;;10.13;3.70;;;;;;;;;;5016479;28;20054;-76
2022/07/26 03:13:29;;;;;;;8.52;3.05;;;;;;;;;;5000517;28;20037;-79
2022/07/26 03:15:54;;;;;;;9.95;3.22;;;;;;;;;;5002418;28;20036;-76
2022/07/26 03:18:19;;;;;;;8.30;2.80;;;;;;;;;;4997321;28;20080;-75
2022/07/26 03:20:44;;;;;;;9.65;3.20;;;;;;;;;;4996975;28;20065;-76
2022/07/26 03:23:10;;;;;;;8.77;3.38;;;;;;;;;;5000933;28;20081;-77
2022/07/26 03:25:35;;;;;;;10.35;3.15;;;;;;;;;;4998464;28;20049;-76
2022/07/26 03:28:00;;;;;;;5.53;3.07;;;;;;;;;;5001107;28;20045;-77
2022/07/26 03:30:25;;;;;;;7.47;3.37;;;;;;;;;;5002451;28;20597;-77
2022/07/26 03:32:50;;;;;;;8.80;3.00;;;;;;;;;;5001085;28;20271;-77
2022/07/26 03:35:16;;;;;;;6.78;2.75;;;;;;;;;;5003580;28;20287;-77
2022/07/26 03:37:41;;;;;;;8.52;2.67;;;;;;;;;;5017242;28;20041;-77
2022/07/26 03:40:07;;;;;;;7.10;2.60;;;;;;;;;;5003875;28;20041;-76
2022/07/26 03:42:33;;;;;;;7.13;3.10;;;;;;;;;;5003637;28;20029;-76
2022/07/26 03:44:58;;;;;;;7.45;2.95;;;;;;;;;;5006063;28;20018;-77
2022/07/26 03:47:23;;;;;;;7.53;2.58;;;;;;;;;;5006761;28;22381;-76
2022/07/26 03:49:48;;;;;;;5.13;2.75;;;;;;;;;;5009275;28;20347;-76
2022/07/26 03:52:14;;;;;;;4.22;2.63;;;;;;;;;;5006716;28;20030;-77
2022/07/26 03:54:39;;;;;;;6.80;2.53;;;;;;;;;;5005781;28;20048;-77
2022/07/26 03:57:04;;;;;;;6.28;2.10;;;;;;;;;;5009561;28;20563;-77
2022/07/26 03:59:29;;;;;;;6.07;2.70;;;;;;;;;;5007134;28;20637;-76
2022/07/26 04:01:55;;;;;;;5.30;2.10;;;;;;;;;;5007663;28;20104;-76
2022/07/26 04:04:20;;;;;;;6.00;2.13;;;;;;;;;;5011687;28;20783;-77
2022/07/26 04:06:48;;;;;;;7.95;2.53;;;;;;;;;;5007158;28;20036;-76
2022/07/26 04:09:14;;;;;;;5.43;2.25;;;;;;;;;;5010480;28;20073;-78
2022/07/26 04:11:40;;;;;;;3.55;2.35;;;;;;;;;;5027415;28;20382;-76
2022/07/26 04:14:05;;;;;;;5.50;2.25;;;;;;;;;;5024923;28;20028;-77
2022/07/26 04:16:30;;;;;;;4.50;2.35;;;;;;;;;;5014260;28;20045;-76
2022/07/26 04:18:55;;;;;;;6.85;2.58;;;;;;;;;;5025694;28;20052;-78
2022/07/26 04:21:21;;;;;;;7.00;2.10;;;;;;;;;;5029994;28;20022;-77
2022/07/26 04:23:46;;;;;;;5.38;2.15;;;;;;;;;;5026662;28;20033;-77
2022/07/26 04:26:14;;;;;;;7.75;2.45;;;;;;;;;;5007403;28;20520;-77
2022/07/26 04:28:40;;;;;;;8.88;2.15;;;;;;;;;;5028515;28;20034;-76
2022/07/26 04:31:05;;;;;;;7.85;2.25;;;;;;;;;;5012312;28;20033;-76
2022/07/26 04:33:31;;;;;;;6.68;1.90;;;;;;;;;;5022937;28;20168;-77
2022/07/26 04:35:57;;;;;;;5.07;2.30;;;;;;;;;;5024060;28;20442;-78
2022/07/26 04:38:25;;;;;;;7.93;2.00;;;;;;;;;;5024919;28;20112;-77
2022/07/26 04:40:51;;;;;;;4.05;2.45;;;;;;;;;;5012549;28;20389;-78
2022/07/26 04:43:16;;;;;;;5.10;1.65;;;;;;;;;;5023729;28;20048;-76
2022/07/26 04:45:45;;;;;;;7.93;2.15;;;;;;;;;;5020538;28;20033;-76
2022/07/26 04:48:10;;;;;;;5.13;1.67;;;;;;;;;;5024831;28;20014;-76
2022/07/26 04:50:36;;;;;;;6.00;1.80;;;;;;;;;;5025148;28;20041;-78
2022/07/26 04:53:01;;;;;;;5.57;1.90;;;;;;;;;;5022619;28;20224;-77
2022/07/26 04:55:27;;;;;;;7.38;2.67;;;;;;;;;;5020403;28;20472;-78
2022/07/26 04:57:52;;;;;;;4.72;2.35;;;;;;;;;;5024030;28;20037;-76
2022/07/26 05:00:22;;;;;;;4.80;2.03;;;;;;;;;;5025272;28;20500;-78
2022/07/26 05:02:48;;;;;;;3.58;2.40;;;;;;;;;;4997563;28;20048;-77
2022/07/26 05:05:13;;;;;;;5.40;2.42;;;;;;;;;;5024429;28;20025;-78
2022/07/26 05:07:49;;;;;;;5.78;2.20;;;;;;;;;;5023824;28;20036;-77
2022/07/26 05:10:15;;;;;;;5.97;2.35;;;;;;;;;;5025425;28;20559;-77
2022/07/26 05:12:40;;;;;;;6.43;2.53;;;;;;;;;;5022557;28;20017;-76
2022/07/26 05:15:06;;;;;;;6.30;2.38;;;;;;;;;;5021941;28;20021;-76
2022/07/26 05:17:31;;;;;;;5.85;2.20;;;;;;;;;;5023299;28;20033;-76
2022/07/26 05:19:57;;;;;;;5.07;2.00;;;;;;;;;;5012039;28;20029;-77
2022/07/26 05:22:22;;;;;;;6.05;2.22;;;;;;;;;;5024191;28;20056;-76
2022/07/26 05:24:47;;;;;;;10.07;2.60;;;;;;;;;;5005665;28;20101;-78
2022/07/26 05:27:12;;;;;;;5.40;2.10;;;;;;;;;;5024683;28;20504;-76
2022/07/26 05:29:38;;;;;;;8.48;1.92;;;;;;;;;;5024385;28;20091;-76
2022/07/26 05:32:03;;;;;;;5.63;1.48;;;;;;;;;;5029073;28;20014;-78
2022/07/26 05:34:28;;;;;;;8.65;1.55;;;;;;;;;;5019637;28;20116;-77
2022/07/26 05:36:54;;;;;;;13.55;1.85;;;;;;;;;;5025455;28;20478;-78
2022/07/26 05:39:19;;;;;;;4.60;1.90;;;;;;;;;;5023685;28;20025;-76
2022/07/26 05:41:44;;;;;;;5.18;1.63;;;;;;;;;;5025423;28;20021;-76
2022/07/26 05:44:09;;;;;;;4.72;1.52;;;;;;;;;;5024815;28;20401;-77
2022/07/26 05:46:36;;;;;;;6.75;1.55;;;;;;;;;;5025408;28;20084;-77
2022/07/26 05:49:03;;;;;;;6.93;2.30;;;;;;;;;;5013069;28;20474;-77
2022/07/26 05:51:29;;;;;;;7.22;1.92;;;;;;;;;;5011275;28;20024;-77
2022/07/26 05:53:54;;;;;;;5.70;1.80;;;;;;;;;;5021861;28;20033;-77
2022/07/26 05:56:19;;;;;;;8.43;1.98;;;;;;;;;;5026226;28;20073;-77
2022/07/26 05:58:44;;;;;;;7.00;1.60;;;;;;;;;;5012348;28;20107;-77
2022/07/26 06:01:10;;;;;;;7.35;2.10;;;;;;;;;;5028653;28;20044;-76
2022/07/26 06:03:35;;;;;;;3.72;1.75;;;;;;;;;;5014625;28;20029;-77
2022/07/26 06:06:00;;;;;;;6.63;1.63;;;;;;;;;;5020971;28;20608;-79
2022/07/26 06:08:26;;;;;;;8.30;1.58;;;;;;;;;;5022244;28;20373;-77
2022/07/26 06:10:52;;;;;;;6.60;1.60;;;;;;;;;;5018031;28;20049;-76
2022/07/26 06:13:17;;;;;;;7.20;1.95;;;;;;;;;;5020149;28;20026;-76
2022/07/26 06:15:43;;;;;;;4.15;1.50;;;;;;;;;;5021867;28;20047;-77
2022/07/26 06:18:09;;;;;;;7.10;2.10;;;;;;;;;;5018166;28;20025;-76
2022/07/26 06:20:37;;;;;;;4.00;1.40;;;;;;;;;;5004029;28;20087;-76
2022/07/26 06:23:02;;;;;;;5.38;1.48;;;;;;;;;;5023099;28;20088;-76
2022/07/26 06:25:27;;;;;;;8.27;1.27;;;;;;;;;;5000558;28;20039;-77
2022/07/26 06:27:53;;;;;;;6.90;1.98;;;;;;;;;;5013404;28;20029;-76
2022/07/26 06:30:18;;;;;;;5.07;1.20;;;;;;;;;;5008441;28;20060;-76
2022/07/26 06:32:46;;;;;;;4.93;1.07;;;;;;;;;;5013800;28;20505;-76
2022/07/26 06:35:12;;;;;;;8.95;1.90;;;;;;;;;;5015194;28;20287;-74
2022/07/26 06:37:38;;;;;;;2.88;0.93;;;;;;;;;;5021220;28;20048;-76
2022/07/26 06:40:07;;;;;;;3.10;1.58;;;;;;;;;;5021353;28;20041;-74
2022/07/26 06:42:32;;;;;;;4.57;0.93;;;;;;;;;;5017576;28;20505;-76
2022/07/26 06:44:58;;;;;;;8.27;2.17;;;;;;;;;;5003418;28;20037;-76
2022/07/26 06:47:23;;;;;;;5.55;1.77;;;;;;;;;;5001744;28;20030;-76
2022/07/26 06:49:48;;;;;;;2.20;0.73;;;;;;;;;;5022048;28;20029;-76
2022/07/26 06:52:14;;;;;;;5.03;1.48;;;;;;;;;;5000444;28;20075;-76
2022/07/26 06:54:39;;;;;;;5.13;1.00;;;;;;;;;;5017853;28;20025;-76
2022/07/26 06:57:04;;;;;;;3.97;1.05;;;;;;;;;;5006155;28;20037;-75
2022/07/26 06:59:29;;;;;;;3.20;0.90;;;;;;;;;;5019659;28;20029;-76
2022/07/26 07:01:54;;;;;;;4.43;0.88;;;;;;;;;;5022328;28;20025;-76
2022/07/26 07:04:20;;;;;;;3.67;0.90;;;;;;;;;;5015940;28;20070;-76
2022/07/26 07:06:48;;;;;;;3.75;1.25;;;;;;;;;;4997568;28;20290;-74
2022/07/26 07:09:13;;;;;;;6.88;1.58;;;;;;;;;;5020078;28;20064;-76
2022/07/26 07:11:39;;;;;;;4.38;1.45;;;;;;;;;;5016318;28;20501;-75
2022/07/26 07:14:04;;;;;;;4.07;0.90;;;;;;;;;;5016003;28;20293;-75
2022/07/26 07:16:29;;;;;;;4.97;1.00;;;;;;;;;;4997903;28;20121;-75
2022/07/26 07:18:54;;;;;;;5.07;1.60;;;;;;;;;;5026204;28;20032;-76
2022/07/26 07:21:19;;;;;;;6.35;1.23;;;;;;;;;;5017605;28;20908;-76
2022/07/26 07:23:45;;;;;;;6.23;1.23;;;;;;;;;;5020297;28;20104;-74
2022/07/26 07:26:10;;;;;;;5.88;1.15;;;;;;;;;;5006637;28;20332;-76
2022/07/26 07:28:38;;;;;;;2.22;0.82;;;;;;;;;;5020032;28;20032;-74
2022/07/26 07:31:04;;;;;;;5.53;0.90;;;;;;;;;;5026370;28;20457;-75
2022/07/26 07:33:29;;;;;;;5.35;1.00;;;;;;;;;;5007501;28;20254;-75
2022/07/26 07:35:54;;;;;;;2.63;1.20;;;;;;;;;;5026752;28;20055;-75
2022/07/26 07:38:19;;;;;;;2.90;1.20;;;;;;;;;;5020975;28;22061;-75
2022/07/26 07:40:45;;;;;;;6.95;1.58;;;;;;;;;;5020913;28;20045;-76
2022/07/26 07:43:10;;;;;;;5.70;1.50;;;;;;;;;;5013168;28;20025;-76
2022/07/26 07:45:35;;;;;;;3.20;1.23;;;;;;;;;;5006675;28;20654;-75
2022/07/26 07:48:00;;;;;;;5.07;0.90;;;;;;;;;;4998828;28;20050;-76
2022/07/26 07:50:26;;;;;;;3.15;1.20;;;;;;;;;;5023217;28;20055;-74
2022/07/26 07:52:51;;;;;;;6.55;1.30;;;;;;;;;;5011731;28;20033;-75
2022/07/26 07:55:16;;;;;;;3.47;1.02;;;;;;;;;;5022893;28;20465;-75
2022/07/26 07:57:41;;;;;;;5.43;1.20;;;;;;;;;;5032261;28;20100;-77
2022/07/26 08:00:07;;;;;;;3.10;0.80;;;;;;;;;;5005543;28;20033;-75
2022/07/26 08:02:32;;;;;;;7.00;0.90;;;;;;;;;;5022145;28;20033;-75
2022/07/26 08:05:01;;;;;;;4.05;1.15;;;;;;;;;;5018325;28;20032;-74
2022/07/26 08:07:26;;;;;;;5.75;1.05;;;;;;;;;;5029344;28;20127;-76
2022/07/26 08:09:51;;;;;;;7.90;2.00;;;;;;;;;;5020293;28;20073;-76
2022/07/26 08:12:16;;;;;;;7.00;1.00;;;;;;;;;;5019312;28;20026;-75
2022/07/26 08:14:42;;;;;;;2.90;1.00;;;;;;;;;;5022686;28;20438;-74
2022/07/26 08:17:10;;;;;;;7.82;1.55;;;;;;;;;;5007738;28;20486;-75
2022/07/26 08:19:35;;;;;;;2.58;0.90;;;;;;;;;;5005519;28;20470;-74
2022/07/26 08:22:03;;;;;;;6.38;1.13;;;;;;;;;;5021398;28;20032;-74
2022/07/26 08:24:28;;;;;;;3.70;1.23;;;;;;;;;;5023227;28;20070;-75
2022/07/26 08:26:53;;;;;;;2.88;0.80;;;;;;;;;;5017093;28;20029;-76
2022/07/26 08:29:18;;;;;;;2.70;0.90;;;;;;;;;;5018000;28;20021;-76
2022/07/26 08:31:44;;;;;;;2.05;0.82;;;;;;;;;;5020656;28;20636;-77
2022/07/26 08:34:09;;;;;;;2.28;0.82;;;;;;;;;;5018912;28;20021;-76
2022/07/26 08:36:37;;;;;;;3.83;0.85;;;;;;;;;;5005115;28;20038;-75
2022/07/26 08:39:03;;;;;;;1.80;0.80;;;;;;;;;;5006679;28;20037;-76
2022/07/26 08:41:29;;;;;;;3.25;1.08;;;;;;;;;;5026870;28;20362;-75
2022/07/26 08:44:03;;;;;;;4.32;1.00;;;;;;;;;;5008904;28;20029;-74
2022/07/26 08:46:28;;;;;;;11.68;1.98;;;;;;;;;;5010196;28;20049;-75
2022/07/26 08:48:54;;;;;;;3.97;0.90;;;;;;;;;;5025096;28;20021;-77
2022/07/26 08:51:21;;;;;;;2.60;0.77;;;;;;;;;;5014005;28;20037;-75
2022/07/26 08:53:46;;;;;;;4.82;1.13;;;;;;;;;;5027231;28;20022;-76
2022/07/26 08:56:11;;;;;;;6.45;1.10;;;;;;;;;;5004393;28;20067;-75
2022/07/26 08:58:39;;;;;;;1.85;0.93;;;;;;;;;;4997275;28;20117;-76
2022/07/26 09:01:04;;;;;;;11.75;1.90;;;;;;;;;;5013533;28;20079;-76
2022/07/26 09:03:30;;;;;;;5.03;1.08;;;;;;;;;;4999480;28;20112;-74
2022/07/26 09:05:59;;;;;;;4.88;1.10;;;;;;;;;;5022171;28;20056;-74
2022/07/26 09:08:27;;;;;;;3.45;0.98;;;;;;;;;;5001530;28;20032;-75
2022/07/26 09:10:53;;;;;;;6.70;2.00;;;;;;;;;;5001934;28;20053;-76
2022/07/26 09:13:19;;;;;;;5.40;1.17;;;;;;;;;;4993663;28;20021;-75
2022/07/26 09:15:44;;;;;;;4.53;1.10;;;;;;;;;;5013985;28;20033;-74
2022/07/26 09:18:24;;;;;;;2.15;1.38;;;;;;;;;;5017036;28;20037;-76
2022/07/26 09:20:49;;;;;;;6.65;1.33;;;;;;;;;;5006031;28;20033;-75
2022/07/26 09:23:15;;;;;;;6.40;2.47;;;;;;;;;;5018489;28;20447;-73
2022/07/26 09:25:42;;;;;;;3.38;0.90;;;;;;;;;;5024730;28;20066;-75
2022/07/26 09:28:24;;;;;;;7.10;1.40;;;;;;;;;;5005915;28;20030;-76
2022/07/26 09:30:54;;;;;;;4.32;1.40;;;;;;;;;;5022563;28;20033;-75
2022/07/26 09:33:19;;;;;;;5.78;1.30;;;;;;;;;;4997438;28;20485;-75
2022/07/26 09:35:59;;;;;;;4.97;1.27;;;;;;;;;;5016689;28;20041;-75
2022/07/26 09:38:24;;;;;;;1.55;0.77;;;;;;;;;;5015463;28;20052;-76
2022/07/26 09:40:49;;;;;;;5.45;1.70;;;;;;;;;;4999435;28;20030;-76
2022/07/26 09:43:15;;;;;;;5.18;1.40;;;;;;;;;;4997681;28;20040;-76
2022/07/26 09:45:40;;;;;;;4.47;1.25;;;;;;;;;;5011226;28;20473;-76
2022/07/26 09:48:09;;;;;;;1.65;0.95;;;;;;;;;;5000172;28;20104;-74
2022/07/26 09:50:34;;;;;;;8.15;1.38;;;;;;;;;;5019647;28;20068;-74
2022/07/26 09:53:00;;;;;;;3.72;0.93;;;;;;;;;;5001583;28;20533;-76
2022/07/26 09:55:25;;;;;;;6.25;1.40;;;;;;;;;;5014181;28;20029;-74
2022/07/26 09:57:50;;;;;;;2.55;1.00;;;;;;;;;;4989732;28;20033;-77
2022/07/26 10:00:16;;;;;;;9.90;1.48;;;;;;;;;;5018481;28;20033;-75
2022/07/26 10:02:41;;;;;;;1.42;1.20;;;;;;;;;;5017081;28;20474;-76
2022/07/26 10:05:06;;;;;;;7.78;1.20;;;;;;;;;;5017875;28;20386;-78
2022/07/26 10:07:32;;;;;;;9.60;1.38;;;;;;;;;;5004933;28;20034;-76
2022/07/26 10:10:00;;;;;;;5.03;1.70;;;;;;;;;;5016330;28;20100;-76
2022/07/26 10:12:27;;;;;;;2.20;1.00;;;;;;;;;;5021542;28;20441;-77
2022/07/26 10:14:54;;;;;;;9.45;1.15;;;;;;;;;;5021867;28;20585;-77
2022/07/26 10:17:28;;;;;;;3.08;1.20;;;;;;;;;;5020060;28;20370;-76
2022/07/26 10:19:54;;;;;;;4.18;1.00;;;;;;;;;;5018797;28;20508;-77
2022/07/26 10:22:26;;;;;;;6.57;1.23;;;;;;;;;;5015086;28;20029;-77
2022/07/26 10:24:52;;;;;;;3.87;0.97;;;;;;;;;;5009911;28;20156;-78
2022/07/26 10:27:39;;;;;;;9.20;1.05;;;;;;;;;;4999395;28;20068;-77
2022/07/26 10:30:17;;;;;;;5.32;1.38;;;;;;;;;;4997339;28;20017;-77
2022/07/26 10:33:01;;;;;;;5.50;1.30;;;;;;;;;;5008202;28;20022;-77
2022/07/26 10:35:30;;;;;;;4.05;1.38;;;;;;;;;;5002742;28;20044;-78
2022/07/26 10:38:00;;;;;;;8.32;1.75;;;;;;;;;;4999962;28;20028;-78
2022/07/26 10:40:28;;;;;;;4.78;1.00;;;;;;;;;;5010026;28;20041;-79
2022/07/26 10:43:05;;;;;;;7.55;1.90;;;;;;;;;;4999069;28;20053;-78
2022/07/26 10:45:30;;;;;;;4.70;1.60;;;;;;;;;;4999408;28;20033;-77
2022/07/26 10:48:08;;;;;;;5.93;1.85;;;;;;;;;;5017103;28;20025;-78
2022/07/26 10:50:33;;;;;;;7.63;1.70;;;;;;;;;;5011998;28;20037;-81
2022/07/26 10:52:59;;;;;;;8.00;1.60;;;;;;;;;;5006658;28;20028;-79
2022/07/26 10:55:24;;;;;;;9.00;1.20;;;;;;;;;;5029365;28;20017;-78
2022/07/26 10:57:49;;;;;;;5.23;1.00;;;;;;;;;;5027870;28;20025;-82
2022/07/26 11:00:17;;;;;;;7.90;1.73;;;;;;;;;;5008637;28;20297;-79
2022/07/26 11:02:42;;;;;;;5.88;1.63;;;;;;;;;;5028594;28;20034;-81
2022/07/26 11:05:15;;;;;;;8.40;1.45;;;;;;;;;;5031826;28;20040;-80
2022/07/26 11:07:46;;;;;;;4.07;1.95;;;;;;;;;;5009191;28;20021;-82
2022/07/26 11:10:12;;;;;;;7.80;1.40;;;;;;;;;;5024849;28;20052;-78
2022/07/26 11:12:37;;;;;;;10.10;2.95;;;;;;;;;;5027818;28;20460;-79
2022/07/26 11:15:13;;;;;;;11.75;3.10;;;;;;;;;;5023925;28;20409;-82
2022/07/26 11:17:38;;;;;;;8.00;1.95;;;;;;;;;;5013272;28;20025;-81
2022/07/26 11:20:04;;;;;;;8.10;2.05;;;;;;;;;;5027553;28;20048;-83
2022/07/26 11:22:35;;;;;;;11.02;2.03;;;;;;;;;;5011020;28;20037;-84
2022/07/26 11:25:01;;;;;;;10.73;1.83;;;;;;;;;;5025069;28;20103;-80
2022/07/26 11:27:29;;;;;;;11.65;2.15;;;;;;;;;;5022121;28;20037;-79
2022/07/26 11:29:54;;;;;;;6.75;2.60;;;;;;;;;;5015112;28;20112;-78
2022/07/26 11:32:24;;;;;;;7.90;2.20;;;;;;;;;;4998534;28;20027;-79
2022/07/26 11:35:03;;;;;;;9.77;2.13;;;;;;;;;;5018910;28;20044;-82
2022/07/26 11:37:28;;;;;;;6.90;1.63;;;;;;;;;;5017946;28;20017;-80
2022/07/26 11:39:54;;;;;;;14.27;2.05;;;;;;;;;;5023832;28;20055;-80
2022/07/26 11:42:20;;;;;;;6.15;1.52;;;;;;;;;;5022797;28;20485;-79
2022/07/26 11:44:46;;;;;;;9.73;2.65;;;;;;;;;;5001803;28;20503;-79
2022/07/26 11:47:18;;;;;;;5.75;2.00;;;;;;;;;;5020444;28;20100;-79
2022/07/26 11:49:43;;;;;;;6.40;2.75;;;;;;;;;;5011615;28;20034;-80
2022/07/26 11:52:10;;;;;;;7.10;1.70;;;;;;;;;;5027081;28;20048;-79
2022/07/26 11:54:43;;;;;;;10.25;1.95;;;;;;;;;;5030041;28;20762;-79
2022/07/26 11:57:09;;;;;;;10.93;1.90;;;;;;;;;;5026099;28;20041;-80
2022/07/26 11:59:35;;;;;;;9.20;2.05;;;;;;;;;;5008932;28;20033;-79
2022/07/26 12:02:01;;;;;;;10.35;2.20;;;;;;;;;;5028382;28;20029;-79
2022/07/26 12:04:28;;;;;;;9.52;2.03;;;;;;;;;;5024764;28;20034;-79
2022/07/26 12:06:54;;;;;;;10.02;2.15;;;;;;;;;;5025974;28;20155;-80
2022/07/26 12:09:27;;;;;;;8.43;1.80;;;;;;;;;;5019399;28;20057;-81
2022/07/26 12:11:52;;;;;;;8.52;1.73;;;;;;;;;;5025238;28;20075;-80
2022/07/26 12:14:23;;;;;;;7.13;2.85;;;;;;;;;;4997624;28;20029;-80
2022/07/26 12:16:49;;;;;;;11.35;2.45;;;;;;;;;;5001557;28;20093;-80
2022/07/26 12:19:17;;;;;;;7.35;2.22;;;;;;;;;;5021612;28;20116;-80
2022/07/26 12:21:46;;;;;;;7.68;2.30;;;;;;;;;;5026678;28;20053;-80
2022/07/26 12:24:30;;;;;;;9.23;2.58;;;;;;;;;;5023443;28;20530;-79
2022/07/26 12:27:06;;;;;;;7.80;2.13;;;;;;;;;;5025198;28;20072;-82
2022/07/26 12:29:35;;;;;;;6.70;2.03;;;;;;;;;;5022247;28;20033;-81
2022/07/26 12:32:04;;;;;;;6.13;1.85;;;;;;;;;;5025588;28;20459;-80
2022/07/26 12:34:30;;;;;;;13.93;2.42;;;;;;;;;;5021769;28;20026;-80
2022/07/26 12:37:04;;;;;;;6.63;2.13;;;;;;;;;;5006259;28;20489;-80
2022/07/26 12:39:29;;;;;;;8.32;1.92;;;;;;;;;;5025530;28;20044;-80
2022/07/26 12:41:54;;;;;;;5.80;1.88;;;;;;;;;;5019504;28;20468;-80
2022/07/26 12:44:21;;;;;;;8.18;1.83;;;;;;;;;;5002162;28;20091;-81
2022/07/26 12:46:46;;;;;;;6.82;1.75;;;;;;;;;;5024394;28;20049;-81
2022/07/26 12:49:15;;;;;;;6.68;2.33;;;;;;;;;;5026880;28;20029;-80
2022/07/26 12:51:44;;;;;;;10.45;2.03;;;;;;;;;;5027977;28;20053;-81
2022/07/26 12:54:10;;;;;;;7.40;2.53;;;;;;;;;;5022827;28;20017;-82
2022/07/26 12:56:35;;;;;;;10.82;1.95;;;;;;;;;;5022598;28;20044;-81
2022/07/26 12:59:00;;;;;;;7.75;2.33;;;;;;;;;;5007564;28;20057;-80
2022/07/26 13:01:27;;;;;;;7.13;2.20;;;;;;;;;;5008254;28;20124;-82
2022/07/26 13:03:54;;;;;;;6.72;2.00;;;;;;;;;;5023669;28;20037;-82
2022/07/26 13:06:19;;;;;;;7.20;1.92;;;;;;;;;;5002114;28;20553;-82
2022/07/26 13:08:48;;;;;;;7.82;1.90;;;;;;;;;;5007578;28;20418;-82
2022/07/26 13:11:14;;;;;;;7.45;1.73;;;;;;;;;;5006777;28;20096;-81
2022/07/26 13:13:39;;;;;;;30.02;3.90;;;;;;;;;;5008157;28;20508;-77
2022/07/26 13:16:04;;;;;;;6.03;1.67;;;;;;;;;;5003765;28;20056;-77
2022/07/26 13:18:30;;;;;;;7.03;1.50;;;;;;;;;;5008947;28;20497;-77
2022/07/26 13:20:55;;;;;;;14.05;2.13;;;;;;;;;;5023750;28;20033;-77
2022/07/26 13:23:20;;;;;;;5.25;1.80;;;;;;;;;;5009851;28;20433;-77
2022/07/26 13:25:46;;;;;;;10.82;1.70;;;;;;;;;;5025081;28;20029;-77
2022/07/26 13:28:11;;;;;;;10.73;2.22;;;;;;;;;;5024345;28;20021;-77
2022/07/26 13:30:37;;;;;;;4.15;1.60;;;;;;;;;;5005064;28;20141;-77
2022/07/26 13:33:03;;;;;;;5.72;1.38;;;;;;;;;;5006486;28;20029;-77
2022/07/26 13:35:28;;;;;;;2.80;1.30;;;;;;;;;;5014726;28;20505;-77
2022/07/26 13:37:53;;;;;;;5.57;1.27;;;;;;;;;;5008417;28;20029;-77
2022/07/26 13:40:21;;;;;;;6.85;1.70;;;;;;;;;;5025265;28;20041;-78
2022/07/26 13:42:48;;;;;;;9.15;2.25;;;;;;;;;;5004083;28;20026;-77
2022/07/26 13:45:14;;;;;;;9.93;2.05;;;;;;;;;;5007082;28;20678;-77
2022/07/26 13:47:39;;;;;;;8.82;1.77;;;;;;;;;;5031206;28;20156;-77
2022/07/26 13:50:04;;;;;;;13.45;1.75;;;;;;;;;;5012874;28;20029;-77
2022/07/26 13:52:30;;;;;;;9.25;2.05;;;;;;;;;;5024682;28;20116;-76
2022/07/26 13:54:55;;;;;;;5.30;1.48;;;;;;;;;;5028068;28;20021;-77
2022/07/26 13:57:23;;;;;;;8.52;1.70;;;;;;;;;;5022259;28;20028;-77
2022/07/26 13:59:49;;;;;;;5.35;1.42;;;;;;;;;;5019113;28;20414;-78
2022/07/26 14:02:14;;;;;;;3.67;1.47;;;;;;;;;;5025567;28;20037;-76
2022/07/26 14:04:39;;;;;;;3.92;1.63;;;;;;;;;;5007695;28;20278;-77
2022/07/26 14:07:04;;;;;;;13.82;3.75;;;;;;;;;;5020412;28;20120;-78
2022/07/26 14:09:30;;;;;;;4.47;1.60;;;;;;;;;;5026119;28;20041;-77
2022/07/26 14:11:55;;;;;;;5.38;1.50;;;;;;;;;;5024980;28;20022;-77
2022/07/26 14:14:22;;;;;;;7.00;1.52;;;;;;;;;;5020312;28;20018;-77
2022/07/26 14:16:47;;;;;;;9.50;1.60;;;;;;;;;;5018531;28;20053;-77
2022/07/26 14:19:13;;;;;;;5.20;1.60;;;;;;;;;;5027171;28;20068;-77
2022/07/26 14:21:38;;;;;;;3.50;1.40;;;;;;;;;;5003801;28;20279;-77
2022/07/26 14:24:03;;;;;;;5.38;1.92;;;;;;;;;;4994516;28;20440;-77
2022/07/26 14:26:32;;;;;;;3.65;1.00;;;;;;;;;;5018172;28;20072;-78
2022/07/26 14:28:57;;;;;;;4.47;1.50;;;;;;;;;;4996726;28;20038;-78
2022/07/26 14:31:22;;;;;;;3.72;1.25;;;;;;;;;;5005381;28;20509;-77
2022/07/26 14:33:48;;;;;;;5.15;1.10;;;;;;;;;;5019739;28;20068;-77